sensor_id;sensor_type;location;lat;lon;timestamp;pressure;altitude;pressure_sealevel;temperature;humidity
51528;BME280;37612;51.768;21.590;2023-09-08T00:01:35;100985.80;;;17.15;81.05
51528;BME280;37612;51.768;21.590;2023-09-08T00:05:57;100988.66;;;17.08;81.18
51528;BME280;37612;51.768;21.590;2023-09-08T00:09:59;100990.28;;;17.02;81.62
51528;BME280;37612;51.768;21.590;2023-09-08T00:14:13;100993.52;;;17.01;81.80
51528;BME280;37612;51.768;21.590;2023-09-08T00:19:06;100989.84;;;17.02;81.73
51528;BME280;37612;51.768;21.590;2023-09-08T00:23:09;100990.88;;;17.02;81.88
51528;BME280;37612;51.768;21.590;2023-09-08T00:27:14;100992.11;;;17.00;81.92
51528;BME280;37612;51.768;21.590;2023-09-08T00:31:17;100985.54;;;16.95;82.26
51528;BME280;37612;51.768;21.590;2023-09-08T00:35:19;100982.99;;;16.91;82.34
51528;BME280;37612;51.768;21.590;2023-09-08T00:39:21;100980.88;;;16.85;82.37
51528;BME280;37612;51.768;21.590;2023-09-08T00:43:43;100980.55;;;16.80;82.23
51528;BME280;37612;51.768;21.590;2023-09-08T00:47:45;100982.13;;;16.72;82.22
51528;BME280;37612;51.768;21.590;2023-09-08T00:51:47;100983.80;;;16.69;82.26
51528;BME280;37612;51.768;21.590;2023-09-08T00:55:50;100977.58;;;16.65;82.51
51528;BME280;37612;51.768;21.590;2023-09-08T00:59:53;100973.80;;;16.64;82.72
51528;BME280;37612;51.768;21.590;2023-09-08T01:03:55;100980.10;;;16.62;82.94
51528;BME280;37612;51.768;21.590;2023-09-08T01:07:58;100975.84;;;16.56;83.03
51528;BME280;37612;51.768;21.590;2023-09-08T01:12:02;100975.50;;;16.49;83.33
51528;BME280;37612;51.768;21.590;2023-09-08T01:16:04;100976.89;;;16.44;83.43
51528;BME280;37612;51.768;21.590;2023-09-08T01:20:41;100975.58;;;16.38;83.56
51528;BME280;37612;51.768;21.590;2023-09-08T01:24:46;100976.22;;;16.33;83.84
51528;BME280;37612;51.768;21.590;2023-09-08T01:28:50;100970.20;;;16.27;83.82
51528;BME280;37612;51.768;21.590;2023-09-08T01:32:54;100969.86;;;16.22;84.08
51528;BME280;37612;51.768;21.590;2023-09-08T01:36:58;100970.55;;;16.16;84.31
51528;BME280;37612;51.768;21.590;2023-09-08T01:41:04;100968.19;;;16.07;84.53
51528;BME280;37612;51.768;21.590;2023-09-08T01:45:07;100975.70;;;16.01;84.75
51528;BME280;37612;51.768;21.590;2023-09-08T01:49:32;100975.88;;;15.95;84.95
51528;BME280;37612;51.768;21.590;2023-09-08T01:53:35;100974.98;;;15.95;84.98
51528;BME280;37612;51.768;21.590;2023-09-08T01:57:36;100968.77;;;15.91;84.90
51528;BME280;37612;51.768;21.590;2023-09-08T02:01:40;100968.73;;;15.82;84.78
51528;BME280;37612;51.768;21.590;2023-09-08T02:05:41;100967.67;;;15.71;85.01
51528;BME280;37612;51.768;21.590;2023-09-08T02:09:45;100967.96;;;15.57;85.46
51528;BME280;37612;51.768;21.590;2023-09-08T02:13:47;100960.80;;;15.49;85.77
51528;BME280;37612;51.768;21.590;2023-09-08T02:17:53;100954.86;;;15.46;86.16
51528;BME280;37612;51.768;21.590;2023-09-08T02:22:12;100961.92;;;15.50;86.42
51528;BME280;37612;51.768;21.590;2023-09-08T02:26:16;100957.54;;;15.52;86.40
51528;BME280;37612;51.768;21.590;2023-09-08T02:30:20;100954.44;;;15.53;86.53
51528;BME280;37612;51.768;21.590;2023-09-08T02:34:36;100950.70;;;15.52;86.72
51528;BME280;37612;51.768;21.590;2023-09-08T02:38:39;100946.92;;;15.48;86.89
51528;BME280;37612;51.768;21.590;2023-09-08T02:42:41;100945.01;;;15.45;86.74
51528;BME280;37612;51.768;21.590;2023-09-08T02:46:44;100935.84;;;15.42;86.90
51528;BME280;37612;51.768;21.590;2023-09-08T02:50:46;100929.65;;;15.43;86.94
51528;BME280;37612;51.768;21.590;2023-09-08T02:54:48;100932.13;;;15.42;86.95
51528;BME280;37612;51.768;21.590;2023-09-08T02:58:50;100933.60;;;15.36;86.99
51528;BME280;37612;51.768;21.590;2023-09-08T03:02:52;100934.88;;;15.27;87.24
51528;BME280;37612;51.768;21.590;2023-09-08T03:06:54;100937.61;;;15.18;87.62
51528;BME280;37612;51.768;21.590;2023-09-08T03:10:58;100935.66;;;15.15;87.79
51528;BME280;37612;51.768;21.590;2023-09-08T03:15:22;100930.85;;;15.13;88.04
51528;BME280;37612;51.768;21.590;2023-09-08T03:19:48;100927.29;;;15.11;88.13
51528;BME280;37612;51.768;21.590;2023-09-08T03:24:02;100922.92;;;15.10;88.33
51528;BME280;37612;51.768;21.590;2023-09-08T03:28:15;100922.77;;;15.04;88.18
51528;BME280;37612;51.768;21.590;2023-09-08T03:32:42;100920.70;;;14.93;88.29
51528;BME280;37612;51.768;21.590;2023-09-08T03:36:55;100919.34;;;14.85;88.19
51528;BME280;37612;51.768;21.590;2023-09-08T03:40:56;100925.48;;;14.80;88.28
51528;BME280;37612;51.768;21.590;2023-09-08T03:45:56;100926.48;;;14.80;88.71
51528;BME280;37612;51.768;21.590;2023-09-08T03:50:06;100926.34;;;14.80;88.92
51528;BME280;37612;51.768;21.590;2023-09-08T03:54:11;100921.50;;;14.74;89.13
51528;BME280;37612;51.768;21.590;2023-09-08T03:58:13;100920.63;;;14.66;88.98
51528;BME280;37612;51.768;21.590;2023-09-08T04:02:14;100917.81;;;14.60;89.18
51528;BME280;37612;51.768;21.590;2023-09-08T04:06:17;100916.73;;;14.58;89.25
51528;BME280;37612;51.768;21.590;2023-09-08T04:10:37;100913.00;;;14.55;89.28
51528;BME280;37612;51.768;21.590;2023-09-08T04:14:41;100911.76;;;14.55;89.61
51528;BME280;37612;51.768;21.590;2023-09-08T04:18:44;100909.80;;;14.53;89.77
51528;BME280;37612;51.768;21.590;2023-09-08T04:23:05;100914.61;;;14.50;89.95
51528;BME280;37612;51.768;21.590;2023-09-08T04:27:16;100919.95;;;14.49;89.86
51528;BME280;37612;51.768;21.590;2023-09-08T04:31:21;100915.38;;;14.48;89.75
51528;BME280;37612;51.768;21.590;2023-09-08T04:35:24;100916.75;;;14.50;89.91
51528;BME280;37612;51.768;21.590;2023-09-08T04:39:45;100916.91;;;14.51;89.99
51528;BME280;37612;51.768;21.590;2023-09-08T04:43:47;100910.28;;;14.49;90.35
51528;BME280;37612;51.768;21.590;2023-09-08T04:48:09;100907.43;;;14.52;90.61
51528;BME280;37612;51.768;21.590;2023-09-08T04:52:34;100903.74;;;14.60;90.67
51528;BME280;37612;51.768;21.590;2023-09-08T04:56:56;100902.99;;;14.66;90.81
51528;BME280;37612;51.768;21.590;2023-09-08T05:00:59;100908.64;;;14.73;90.86
51528;BME280;37612;51.768;21.590;2023-09-08T05:05:03;100905.84;;;14.78;90.74
51528;BME280;37612;51.768;21.590;2023-09-08T05:09:14;100898.83;;;14.81;90.93
51528;BME280;37612;51.768;21.590;2023-09-08T05:13:16;100899.10;;;14.89;91.21
51528;BME280;37612;51.768;21.590;2023-09-08T05:17:18;100896.72;;;15.00;91.20
51528;BME280;37612;51.768;21.590;2023-09-08T05:21:20;100895.30;;;15.14;91.35
51528;BME280;37612;51.768;21.590;2023-09-08T05:25:22;100892.11;;;15.29;91.36
51528;BME280;37612;51.768;21.590;2023-09-08T05:29:36;100892.14;;;15.41;91.53
51528;BME280;37612;51.768;21.590;2023-09-08T05:34:07;100892.11;;;15.53;91.71
51528;BME280;37612;51.768;21.590;2023-09-08T05:38:09;100890.05;;;15.62;91.96
51528;BME280;37612;51.768;21.590;2023-09-08T05:42:13;100884.13;;;15.71;91.79
51528;BME280;37612;51.768;21.590;2023-09-08T05:46:38;100889.73;;;15.80;91.67
51528;BME280;37612;51.768;21.590;2023-09-08T05:50:52;100888.69;;;15.94;91.89
51528;BME280;37612;51.768;21.590;2023-09-08T05:55:28;100889.98;;;16.11;91.95
51528;BME280;37612;51.768;21.590;2023-09-08T06:00:05;100885.65;;;16.28;92.24
51528;BME280;37612;51.768;21.590;2023-09-08T06:04:42;100887.63;;;16.45;92.31
51528;BME280;37612;51.768;21.590;2023-09-08T06:09:16;100888.61;;;16.65;92.19
51528;BME280;37612;51.768;21.590;2023-09-08T06:13:24;100884.61;;;16.84;91.71
51528;BME280;37612;51.768;21.590;2023-09-08T06:17:59;100885.13;;;17.07;91.44
51528;BME280;37612;51.768;21.590;2023-09-08T06:22:35;100886.41;;;17.35;91.40
51528;BME280;37612;51.768;21.590;2023-09-08T06:27:09;100876.88;;;17.52;90.74
51528;BME280;37612;51.768;21.590;2023-09-08T06:31:19;100875.05;;;17.65;90.58
51528;BME280;37612;51.768;21.590;2023-09-08T06:36:06;100880.45;;;17.85;90.22
51528;BME280;37612;51.768;21.590;2023-09-08T06:40:31;100881.11;;;18.02;90.10
51528;BME280;37612;51.768;21.590;2023-09-08T06:44:55;100885.08;;;18.18;89.65
51528;BME280;37612;51.768;21.590;2023-09-08T06:49:17;100880.73;;;18.38;89.13
51528;BME280;37612;51.768;21.590;2023-09-08T06:53:57;100883.39;;;18.61;88.17
51528;BME280;37612;51.768;21.590;2023-09-08T06:58:19;100886.17;;;18.82;87.81
51528;BME280;37612;51.768;21.590;2023-09-08T07:02:47;100879.34;;;19.00;87.31
51528;BME280;37612;51.768;21.590;2023-09-08T07:06:58;100881.14;;;19.17;86.58
51528;BME280;37612;51.768;21.590;2023-09-08T07:12:00;100886.85;;;19.34;86.04
51528;BME280;37612;51.768;21.590;2023-09-08T07:16:03;100890.76;;;19.49;85.31
51528;BME280;37612;51.768;21.590;2023-09-08T07:20:23;100892.52;;;19.67;84.95
51528;BME280;37612;51.768;21.590;2023-09-08T07:24:46;100889.02;;;19.87;84.18
51528;BME280;37612;51.768;21.590;2023-09-08T07:28:48;100894.52;;;20.03;83.48
51528;BME280;37612;51.768;21.590;2023-09-08T07:32:53;100886.67;;;20.25;83.23
51528;BME280;37612;51.768;21.590;2023-09-08T07:36:56;100884.33;;;20.48;82.59
51528;BME280;37612;51.768;21.590;2023-09-08T07:41:29;100884.50;;;20.84;82.24
51528;BME280;37612;51.768;21.590;2023-09-08T07:45:49;100887.85;;;21.17;81.97
51528;BME280;37612;51.768;21.590;2023-09-08T07:50:51;100887.31;;;21.38;80.44
51528;BME280;37612;51.768;21.590;2023-09-08T07:55:00;100886.39;;;21.53;79.70
51528;BME280;37612;51.768;21.590;2023-09-08T08:00:05;100884.94;;;21.76;79.50
51528;BME280;37612;51.768;21.590;2023-09-08T08:04:51;100882.50;;;21.96;78.56
51528;BME280;37612;51.768;21.590;2023-09-08T08:09:36;100876.79;;;22.14;77.37
51528;BME280;37612;51.768;21.590;2023-09-08T08:13:49;100874.73;;;22.31;77.18
51528;BME280;37612;51.768;21.590;2023-09-08T08:18:11;100875.20;;;22.48;76.51
51528;BME280;37612;51.768;21.590;2023-09-08T08:22:22;100876.56;;;22.68;75.84
51528;BME280;37612;51.768;21.590;2023-09-08T08:27:08;100880.55;;;22.85;74.61
51528;BME280;37612;51.768;21.590;2023-09-08T08:31:16;100877.63;;;22.97;74.18
51528;BME280;37612;51.768;21.590;2023-09-08T08:35:49;100881.77;;;23.21;73.91
51528;BME280;37612;51.768;21.590;2023-09-08T08:39:57;100881.77;;;23.40;73.20
51528;BME280;37612;51.768;21.590;2023-09-08T08:44:42;100876.83;;;23.56;72.98
51528;BME280;37612;51.768;21.590;2023-09-08T08:48:54;100876.28;;;23.69;72.24
51528;BME280;37612;51.768;21.590;2023-09-08T08:53:33;100871.79;;;23.87;70.94
51528;BME280;37612;51.768;21.590;2023-09-08T08:58:07;100869.59;;;24.00;70.54
51528;BME280;37612;51.768;21.590;2023-09-08T09:02:16;100867.76;;;24.07;70.03
51528;BME280;37612;51.768;21.590;2023-09-08T09:06:55;100862.38;;;24.18;68.41
51528;BME280;37612;51.768;21.590;2023-09-08T09:11:32;100861.05;;;24.36;68.32
51528;BME280;37612;51.768;21.590;2023-09-08T09:16:21;100860.30;;;24.53;67.68
51528;BME280;37612;51.768;21.590;2023-09-08T09:20:29;100859.95;;;24.69;66.99
51528;BME280;37612;51.768;21.590;2023-09-08T09:25:27;100860.53;;;24.70;65.97
51528;BME280;37612;51.768;21.590;2023-09-08T09:30:10;100851.27;;;24.67;65.61
51528;BME280;37612;51.768;21.590;2023-09-08T09:34:22;100851.64;;;24.80;65.21
51528;BME280;37612;51.768;21.590;2023-09-08T09:38:44;100845.36;;;25.01;65.27
51528;BME280;37612;51.768;21.590;2023-09-08T09:42:52;100844.45;;;25.16;64.17
51528;BME280;37612;51.768;21.590;2023-09-08T09:46:54;100846.34;;;25.20;63.58
51528;BME280;37612;51.768;21.590;2023-09-08T09:50:56;100839.67;;;25.26;62.97
51528;BME280;37612;51.768;21.590;2023-09-08T09:54:58;100837.71;;;25.29;61.81
51528;BME280;37612;51.768;21.590;2023-09-08T09:59:01;100833.05;;;25.27;61.56
51528;BME280;37612;51.768;21.590;2023-09-08T10:03:04;100832.40;;;25.28;61.30
51528;BME280;37612;51.768;21.590;2023-09-08T10:07:06;100831.42;;;25.47;61.06
51528;BME280;37612;51.768;21.590;2023-09-08T10:11:16;100831.73;;;25.61;60.32
51528;BME280;37612;51.768;21.590;2023-09-08T10:15:25;100829.19;;;25.80;60.54
51528;BME280;37612;51.768;21.590;2023-09-08T10:19:50;100829.86;;;25.92;60.00
51528;BME280;37612;51.768;21.590;2023-09-08T10:24:27;100824.30;;;26.02;58.95
51528;BME280;37612;51.768;21.590;2023-09-08T10:28:37;100818.90;;;26.02;58.47
51528;BME280;37612;51.768;21.590;2023-09-08T10:33:10;100815.28;;;25.95;57.43
51528;BME280;37612;51.768;21.590;2023-09-08T10:37:19;100812.48;;;25.77;57.20
51528;BME280;37612;51.768;21.590;2023-09-08T10:46:36;100805.65;;;25.92;56.94
51528;BME280;37612;51.768;21.590;2023-09-08T10:50:43;100804.42;;;25.93;56.66
51528;BME280;37612;51.768;21.590;2023-09-08T10:55:13;100806.48;;;25.67;56.43
51528;BME280;37612;51.768;21.590;2023-09-08T10:59:28;100797.73;;;25.38;56.12
51528;BME280;37612;51.768;21.590;2023-09-08T11:08:03;100790.48;;;25.35;56.29
51528;BME280;37612;51.768;21.590;2023-09-08T11:12:12;100786.66;;;25.39;56.28
51528;BME280;37612;51.768;21.590;2023-09-08T11:17:11;100783.81;;;25.48;55.93
51528;BME280;37612;51.768;21.590;2023-09-08T11:21:22;100781.16;;;25.46;55.63
51528;BME280;37612;51.768;21.590;2023-09-08T11:25:59;100776.85;;;25.46;55.34
51528;BME280;37612;51.768;21.590;2023-09-08T11:30:21;100772.16;;;25.56;55.17
51528;BME280;37612;51.768;21.590;2023-09-08T11:34:37;100767.77;;;25.60;54.83
51528;BME280;37612;51.768;21.590;2023-09-08T11:38:48;100761.77;;;25.77;55.08
51528;BME280;37612;51.768;21.590;2023-09-08T11:43:13;100763.56;;;25.91;54.95
51528;BME280;37612;51.768;21.590;2023-09-08T11:47:40;100761.05;;;26.02;54.01
51528;BME280;37612;51.768;21.590;2023-09-08T11:52:02;100753.55;;;25.83;53.64
51528;BME280;37612;51.768;21.590;2023-09-08T11:56:33;100753.15;;;25.70;53.77
51528;BME280;37612;51.768;21.590;2023-09-08T12:00:41;100748.98;;;25.63;53.78
51528;BME280;37612;51.768;21.590;2023-09-08T12:05:14;100744.35;;;25.60;53.72
51528;BME280;37612;51.768;21.590;2023-09-08T12:09:45;100737.93;;;25.55;53.84
51528;BME280;37612;51.768;21.590;2023-09-08T12:13:47;100737.02;;;25.59;53.68
51528;BME280;37612;51.768;21.590;2023-09-08T12:18:41;100732.77;;;25.62;53.38
51528;BME280;37612;51.768;21.590;2023-09-08T12:23:20;100726.55;;;25.67;53.18
51528;BME280;37612;51.768;21.590;2023-09-08T12:27:31;100724.37;;;25.82;53.20
51528;BME280;37612;51.768;21.590;2023-09-08T12:32:06;100717.38;;;26.05;52.99
51528;BME280;37612;51.768;21.590;2023-09-08T12:36:48;100710.14;;;26.17;52.60
51528;BME280;37612;51.768;21.590;2023-09-08T12:41:22;100711.55;;;26.12;51.51
51528;BME280;37612;51.768;21.590;2023-09-08T12:45:29;100709.86;;;26.15;51.50
51528;BME280;37612;51.768;21.590;2023-09-08T12:50:14;100710.92;;;26.19;51.72
51528;BME280;37612;51.768;21.590;2023-09-08T12:54:24;100705.31;;;26.31;51.92
51528;BME280;37612;51.768;21.590;2023-09-08T12:59:00;100704.46;;;26.48;51.85
51528;BME280;37612;51.768;21.590;2023-09-08T13:03:11;100700.84;;;26.45;50.36
51528;BME280;37612;51.768;21.590;2023-09-08T13:07:54;100700.58;;;26.37;50.31
51528;BME280;37612;51.768;21.590;2023-09-08T13:12:05;100693.05;;;26.32;50.51
51528;BME280;37612;51.768;21.590;2023-09-08T13:16:52;100691.48;;;26.36;50.44
51528;BME280;37612;51.768;21.590;2023-09-08T13:21:03;100692.86;;;26.31;50.42
51528;BME280;37612;51.768;21.590;2023-09-08T13:25:37;100688.30;;;26.21;50.53
51528;BME280;37612;51.768;21.590;2023-09-08T13:29:48;100683.52;;;26.20;50.64
51528;BME280;37612;51.768;21.590;2023-09-08T13:34:25;100679.74;;;26.25;50.04
51528;BME280;37612;51.768;21.590;2023-09-08T13:38:37;100677.13;;;26.18;50.19
51528;BME280;37612;51.768;21.590;2023-09-08T13:43:20;100673.52;;;26.09;50.37
51528;BME280;37612;51.768;21.590;2023-09-08T13:47:29;100665.95;;;25.98;50.46
51528;BME280;37612;51.768;21.590;2023-09-08T13:51:51;100661.79;;;25.86;50.50
51528;BME280;37612;51.768;21.590;2023-09-08T13:56:12;100654.91;;;25.76;50.99
51528;BME280;37612;51.768;21.590;2023-09-08T14:00:13;100649.68;;;25.69;51.29
51528;BME280;37612;51.768;21.590;2023-09-08T14:04:15;100647.25;;;25.63;51.77
51528;BME280;37612;51.768;21.590;2023-09-08T14:08:17;100647.34;;;25.61;51.10
51528;BME280;37612;51.768;21.590;2023-09-08T14:12:18;100639.80;;;25.55;51.46
51528;BME280;37612;51.768;21.590;2023-09-08T14:16:20;100639.79;;;25.42;51.78
51528;BME280;37612;51.768;21.590;2023-09-08T14:20:22;100639.62;;;25.26;52.76
51528;BME280;37612;51.768;21.590;2023-09-08T14:24:24;100637.30;;;25.13;53.31
51528;BME280;37612;51.768;21.590;2023-09-08T14:28:25;100633.30;;;25.10;53.31
51528;BME280;37612;51.768;21.590;2023-09-08T14:32:27;100636.64;;;25.02;53.89
51528;BME280;37612;51.768;21.590;2023-09-08T14:36:29;100629.02;;;24.88;54.55
51528;BME280;37612;51.768;21.590;2023-09-08T14:40:30;100627.02;;;24.79;54.86
51528;BME280;37612;51.768;21.590;2023-09-08T14:44:32;100616.75;;;24.80;54.22
51528;BME280;37612;51.768;21.590;2023-09-08T14:48:34;100610.08;;;24.91;54.14
51528;BME280;37612;51.768;21.590;2023-09-08T14:52:38;100608.89;;;25.05;53.42
51528;BME280;37612;51.768;21.590;2023-09-08T14:56:42;100607.77;;;25.20;53.41
51528;BME280;37612;51.768;21.590;2023-09-08T15:00:44;100598.23;;;25.35;52.88
51528;BME280;37612;51.768;21.590;2023-09-08T15:04:45;100596.03;;;25.48;52.57
51528;BME280;37612;51.768;21.590;2023-09-08T15:08:47;100598.66;;;25.58;52.19
51528;BME280;37612;51.768;21.590;2023-09-08T15:12:49;100594.52;;;25.74;52.08
51528;BME280;37612;51.768;21.590;2023-09-08T15:16:54;100589.50;;;25.91;51.97
51528;BME280;37612;51.768;21.590;2023-09-08T15:21:45;100584.79;;;26.11;51.63
51528;BME280;37612;51.768;21.590;2023-09-08T15:26:25;100579.77;;;26.13;51.52
51528;BME280;37612;51.768;21.590;2023-09-08T15:31:09;100580.74;;;26.10;51.53
51528;BME280;37612;51.768;21.590;2023-09-08T15:35:47;100577.80;;;25.98;51.64
51528;BME280;37612;51.768;21.590;2023-09-08T15:41:18;100575.65;;;25.88;51.94
51528;BME280;37612;51.768;21.590;2023-09-08T15:45:38;100576.27;;;25.74;51.98
51528;BME280;37612;51.768;21.590;2023-09-08T15:50:15;100567.14;;;25.61;52.29
51528;BME280;37612;51.768;21.590;2023-09-08T15:54:59;100565.44;;;25.48;52.27
51528;BME280;37612;51.768;21.590;2023-09-08T15:59:02;100565.73;;;25.37;52.43
51528;BME280;37612;51.768;21.590;2023-09-08T16:03:25;100565.95;;;25.25;52.51
51528;BME280;37612;51.768;21.590;2023-09-08T16:08:15;100558.30;;;25.13;52.89
51528;BME280;37612;51.768;21.590;2023-09-08T16:13:03;100559.27;;;24.97;53.61
51528;BME280;37612;51.768;21.590;2023-09-08T16:17:52;100556.52;;;24.80;54.36
51528;BME280;37612;51.768;21.590;2023-09-08T16:21:55;100555.70;;;24.64;55.10
51528;BME280;37612;51.768;21.590;2023-09-08T16:26:06;100551.95;;;24.46;55.51
51528;BME280;37612;51.768;21.590;2023-09-08T16:30:44;100551.66;;;24.25;56.01
51528;BME280;37612;51.768;21.590;2023-09-08T16:35:18;100554.23;;;24.04;56.48
51528;BME280;37612;51.768;21.590;2023-09-08T16:39:29;100552.83;;;23.85;56.87
51528;BME280;37612;51.768;21.590;2023-09-08T16:43:32;100552.35;;;23.65;57.36
51528;BME280;37612;51.768;21.590;2023-09-08T16:47:34;100551.61;;;23.44;57.59
51528;BME280;37612;51.768;21.590;2023-09-08T16:51:36;100552.48;;;23.21;58.14
51528;BME280;37612;51.768;21.590;2023-09-08T16:55:37;100555.14;;;22.95;58.71
51528;BME280;37612;51.768;21.590;2023-09-08T16:59:39;100559.91;;;22.74;59.24
51528;BME280;37612;51.768;21.590;2023-09-08T17:03:41;100558.34;;;22.54;59.66
51528;BME280;37612;51.768;21.590;2023-09-08T17:07:43;100558.49;;;22.29;60.32
51528;BME280;37612;51.768;21.590;2023-09-08T17:11:45;100562.61;;;22.05;60.95
51528;BME280;37612;51.768;21.590;2023-09-08T17:15:47;100560.01;;;21.84;61.48
51528;BME280;37612;51.768;21.590;2023-09-08T17:19:48;100560.91;;;21.62;62.15
51528;BME280;37612;51.768;21.590;2023-09-08T17:23:51;100560.27;;;21.39;62.39
51528;BME280;37612;51.768;21.590;2023-09-08T17:27:55;100562.45;;;21.15;62.90
51528;BME280;37612;51.768;21.590;2023-09-08T17:31:56;100562.83;;;20.97;63.43
51528;BME280;37612;51.768;21.590;2023-09-08T17:35:58;100565.70;;;20.79;63.92
51528;BME280;37612;51.768;21.590;2023-09-08T17:40:00;100564.70;;;20.61;64.47
51528;BME280;37612;51.768;21.590;2023-09-08T17:44:05;100566.89;;;20.42;64.89
51528;BME280;37612;51.768;21.590;2023-09-08T17:48:07;100564.23;;;20.29;65.42
51528;BME280;37612;51.768;21.590;2023-09-08T17:52:10;100566.17;;;20.18;65.93
51528;BME280;37612;51.768;21.590;2023-09-08T17:56:12;100561.39;;;20.10;66.46
51528;BME280;37612;51.768;21.590;2023-09-08T18:00:15;100560.39;;;20.01;66.73
51528;BME280;37612;51.768;21.590;2023-09-08T18:04:17;100561.36;;;19.88;67.12
51528;BME280;37612;51.768;21.590;2023-09-08T18:08:18;100557.75;;;19.71;67.51
51528;BME280;37612;51.768;21.590;2023-09-08T18:12:20;100561.92;;;19.54;67.99
51528;BME280;37612;51.768;21.590;2023-09-08T18:16:22;100561.20;;;19.39;68.39
51528;BME280;37612;51.768;21.590;2023-09-08T18:20:24;100559.71;;;19.26;68.68
51528;BME280;37612;51.768;21.590;2023-09-08T18:24:25;100560.70;;;19.15;69.00
51528;BME280;37612;51.768;21.590;2023-09-08T18:28:27;100565.15;;;19.08;69.21
51528;BME280;37612;51.768;21.590;2023-09-08T18:32:32;100566.64;;;19.01;69.53
51528;BME280;37612;51.768;21.590;2023-09-08T18:36:35;100570.00;;;18.89;69.68
51528;BME280;37612;51.768;21.590;2023-09-08T18:40:46;100571.38;;;18.76;70.13
51528;BME280;37612;51.768;21.590;2023-09-08T18:44:48;100569.62;;;18.67;70.64
51528;BME280;37612;51.768;21.590;2023-09-08T18:48:49;100565.35;;;18.55;70.84
51528;BME280;37612;51.768;21.590;2023-09-08T18:52:52;100567.72;;;18.41;71.15
51528;BME280;37612;51.768;21.590;2023-09-08T18:56:56;100564.67;;;18.29;71.50
51528;BME280;37612;51.768;21.590;2023-09-08T19:01:01;100561.77;;;18.15;71.61
51528;BME280;37612;51.768;21.590;2023-09-08T19:05:04;100563.90;;;18.06;72.04
51528;BME280;37612;51.768;21.590;2023-09-08T19:09:08;100560.09;;;18.03;72.54
51528;BME280;37612;51.768;21.590;2023-09-08T19:13:09;100558.61;;;18.01;73.04
51528;BME280;37612;51.768;21.590;2023-09-08T19:17:38;100558.42;;;17.93;73.15
51528;BME280;37612;51.768;21.590;2023-09-08T19:21:40;100554.77;;;17.85;73.63
51528;BME280;37612;51.768;21.590;2023-09-08T19:25:42;100550.95;;;17.77;74.05
51528;BME280;37612;51.768;21.590;2023-09-08T19:30:04;100550.95;;;17.69;73.97
51528;BME280;37612;51.768;21.590;2023-09-08T19:34:55;100548.48;;;17.62;74.38
51528;BME280;37612;51.768;21.590;2023-09-08T19:39:36;100549.77;;;17.55;74.23
51528;BME280;37612;51.768;21.590;2023-09-08T19:44:04;100545.83;;;17.50;74.87
51528;BME280;37612;51.768;21.590;2023-09-08T19:48:36;100543.88;;;17.44;75.14
51528;BME280;37612;51.768;21.590;2023-09-08T19:53:18;100543.58;;;17.34;75.33
51528;BME280;37612;51.768;21.590;2023-09-08T19:57:27;100541.44;;;17.25;75.53
51528;BME280;37612;51.768;21.590;2023-09-08T20:01:31;100540.89;;;17.18;75.64
51528;BME280;37612;51.768;21.590;2023-09-08T20:05:54;100537.48;;;17.12;75.75
51528;BME280;37612;51.768;21.590;2023-09-08T20:09:56;100539.35;;;17.06;76.16
51528;BME280;37612;51.768;21.590;2023-09-08T20:14:27;100538.09;;;17.01;76.77
51528;BME280;37612;51.768;21.590;2023-09-08T20:18:51;100532.11;;;16.92;77.03
51528;BME280;37612;51.768;21.590;2023-09-08T20:23:53;100533.94;;;16.84;77.38
51528;BME280;37612;51.768;21.590;2023-09-08T20:28:35;100536.45;;;16.74;77.20
51528;BME280;37612;51.768;21.590;2023-09-08T20:33:02;100540.58;;;16.68;77.51
51528;BME280;37612;51.768;21.590;2023-09-08T20:37:04;100533.13;;;16.59;77.59
51528;BME280;37612;51.768;21.590;2023-09-08T20:41:10;100535.75;;;16.51;78.04
51528;BME280;37612;51.768;21.590;2023-09-08T20:45:32;100537.30;;;16.42;78.34
51528;BME280;37612;51.768;21.590;2023-09-08T20:49:34;100535.33;;;16.37;78.74
51528;BME280;37612;51.768;21.590;2023-09-08T20:54:06;100534.20;;;16.35;78.87
51528;BME280;37612;51.768;21.590;2023-09-08T20:58:18;100537.17;;;16.33;79.00
51528;BME280;37612;51.768;21.590;2023-09-08T21:02:39;100536.12;;;16.28;79.19
51528;BME280;37612;51.768;21.590;2023-09-08T21:07:10;100534.36;;;16.21;79.20
51528;BME280;37612;51.768;21.590;2023-09-08T21:11:18;100536.86;;;16.13;79.42
51528;BME280;37612;51.768;21.590;2023-09-08T21:16:02;100533.42;;;16.08;79.96
51528;BME280;37612;51.768;21.590;2023-09-08T21:20:19;100541.79;;;16.05;79.94
51528;BME280;37612;51.768;21.590;2023-09-08T21:24:46;100546.55;;;15.99;79.85
51528;BME280;37612;51.768;21.590;2023-09-08T21:28:54;100548.93;;;15.94;80.64
51528;BME280;37612;51.768;21.590;2023-09-08T21:32:56;100549.69;;;15.90;80.98
51528;BME280;37612;51.768;21.590;2023-09-08T21:36:57;100542.70;;;15.84;81.20
51528;BME280;37612;51.768;21.590;2023-09-08T21:41:17;100542.70;;;15.79;81.09
51528;BME280;37612;51.768;21.590;2023-09-08T21:45:19;100541.35;;;15.75;81.37
51528;BME280;37612;51.768;21.590;2023-09-08T21:49:30;100535.49;;;15.75;81.54
51528;BME280;37612;51.768;21.590;2023-09-08T21:53:32;100536.89;;;15.66;81.09
51528;BME280;37612;51.768;21.590;2023-09-08T21:57:34;100534.63;;;15.57;81.78
51528;BME280;37612;51.768;21.590;2023-09-08T22:01:36;100538.18;;;15.52;82.13
51528;BME280;37612;51.768;21.590;2023-09-08T22:05:40;100541.30;;;15.51;82.10
51528;BME280;37612;51.768;21.590;2023-09-08T22:09:42;100541.57;;;15.48;82.36